Time;durP1;ratioP1;P1;durP2;ratioP2;P2;SDS_P1;SDS_P2;PMS_P1;PMS_P2;Temp;Humidity;BMP_temperature;BMP_pressure;BME280_temperature;BME280_humidity;BME280_pressure;Samples;Min_cycle;Max_cycle;Signal;HPM_P1;HPM_P2
2021/10/08 00:01:32;;;;;;;16.15;5.35;;;359.20;2329.60;;;;;;4977137;28;20622;-77
2021/10/08 00:04:02;;;;;;;15.90;5.32;;;359.20;2329.60;;;;;;4994415;28;20053;-77
2021/10/08 00:06:28;;;;;;;14.73;5.30;;;359.20;2304.00;;;;;;4994905;28;20515;-77
2021/10/08 00:08:54;;;;;;;12.43;5.38;;;359.10;2329.60;;;;;;4977158;28;20030;-78
2021/10/08 00:11:20;;;;;;;15.38;5.28;;;359.10;2304.00;;;;;;4994902;28;20415;-76
2021/10/08 00:13:45;;;;;;;20.60;6.25;;;359.10;2304.00;;;;;;4993580;28;20109;-77
2021/10/08 00:16:13;;;;;;;14.10;5.32;;;359.10;2304.00;;;;;;4977234;28;20535;-77
2021/10/08 00:18:39;;;;;;;16.50;5.18;;;359.10;2304.00;;;;;;4977084;28;20022;-76
2021/10/08 00:21:06;;;;;;;19.17;6.47;;;359.10;2304.00;;;;;;4994403;28;20065;-76
2021/10/08 00:23:32;;;;;;;15.52;4.93;;;359.10;2304.00;;;;;;4977119;28;20018;-77
2021/10/08 00:25:59;;;;;;;10.88;4.90;;;359.20;2304.00;;;;;;4993969;28;20027;-76
2021/10/08 00:28:24;;;;;;;13.82;6.00;;;359.30;2304.00;;;;;;4976942;28;20030;-76
2021/10/08 00:30:50;;;;;;;12.30;5.50;;;359.30;2304.00;;;;;;4976882;28;20034;-76
2021/10/08 00:33:16;;;;;;;14.77;5.78;;;359.30;2329.60;;;;;;4994491;28;20030;-79
2021/10/08 00:35:42;;;;;;;12.20;5.35;;;359.30;2329.60;;;;;;4976694;28;20506;-77
2021/10/08 00:38:09;;;;;;;21.67;6.07;;;359.10;2304.00;;;;;;4976875;28;20150;-76
2021/10/08 00:40:36;;;;;;;19.23;5.85;;;359.10;2329.60;;;;;;4994152;28;20037;-76
2021/10/08 00:43:04;;;;;;;11.32;6.45;;;359.10;2329.60;;;;;;4994143;28;20468;-76
2021/10/08 00:45:30;;;;;;;18.77;5.93;;;359.20;2329.60;;;;;;4976835;28;20603;-76
2021/10/08 00:48:02;;;;;;;15.07;6.70;;;359.10;2329.60;;;;;;4976192;28;20113;-76
2021/10/08 00:50:28;;;;;;;16.58;6.47;;;359.20;2329.60;;;;;;4994089;28;20034;-76
2021/10/08 00:52:54;;;;;;;21.45;6.97;;;359.20;2329.60;;;;;;4993826;28;20026;-76
2021/10/08 00:55:20;;;;;;;16.50;6.68;;;359.20;2329.60;;;;;;4993897;28;20023;-76
2021/10/08 00:57:47;;;;;;;20.73;6.35;;;359.10;2329.60;;;;;;5002553;28;20029;-77
2021/10/08 01:00:14;;;;;;;18.30;6.97;;;359.10;2329.60;;;;;;4995909;28;20026;-75
2021/10/08 01:02:40;;;;;;;22.23;6.05;;;359.10;2329.60;;;;;;5013199;28;20022;-76
2021/10/08 01:05:07;;;;;;;18.00;6.63;;;359.10;2329.60;;;;;;5033558;28;20041;-76
2021/10/08 01:07:32;;;;;;;15.48;7.13;;;359.00;2329.60;;;;;;5033154;28;20025;-76
2021/10/08 01:09:58;;;;;;;22.33;6.40;;;359.10;2329.60;;;;;;5032820;28;20459;-77
2021/10/08 01:12:24;;;;;;;13.45;5.50;;;359.10;2329.60;;;;;;5032949;28;20382;-76
2021/10/08 01:14:50;;;;;;;14.85;5.43;;;359.00;2329.60;;;;;;5047123;28;20448;-74
2021/10/08 01:17:17;;;;;;;13.77;6.10;;;359.00;2329.60;;;;;;5032928;28;20040;-76
2021/10/08 01:19:44;;;;;;;12.63;5.60;;;359.00;2304.00;;;;;;5032625;28;20101;-75
2021/10/08 01:22:10;;;;;;;17.35;6.57;;;359.10;2304.00;;;;;;5031520;28;20031;-75
2021/10/08 01:24:36;;;;;;;17.35;5.68;;;359.00;2304.00;;;;;;5032459;28;20025;-75
2021/10/08 01:27:06;;;;;;;16.25;5.47;;;358.90;2304.00;;;;;;5031470;28;20052;-76
2021/10/08 01:29:34;;;;;;;15.82;5.85;;;358.90;2304.00;;;;;;5032739;28;20026;-75
2021/10/08 01:32:00;;;;;;;14.00;5.47;;;359.00;2304.00;;;;;;5031209;28;20096;-76
2021/10/08 01:34:26;;;;;;;14.45;5.53;;;359.00;2278.40;;;;;;5024221;28;20045;-75
2021/10/08 01:36:52;;;;;;;12.35;5.80;;;359.00;2278.40;;;;;;5030217;28;20041;-75
2021/10/08 01:39:18;;;;;;;16.25;5.43;;;359.00;2278.40;;;;;;5032561;28;20017;-78
2021/10/08 01:41:44;;;;;;;14.13;5.80;;;358.90;2278.40;;;;;;5030966;28;20434;-78
2021/10/08 01:44:09;;;;;;;14.20;5.30;;;358.90;2304.00;;;;;;5031190;28;20030;-75
2021/10/08 01:46:35;;;;;;;14.25;6.07;;;359.00;2304.00;;;;;;5030893;28;20029;-76
2021/10/08 01:49:01;;;;;;;9.35;4.70;;;358.90;2278.40;;;;;;5032448;28;20053;-76
2021/10/08 01:51:27;;;;;;;13.93;5.13;;;358.90;2304.00;;;;;;5030753;28;20038;-76
2021/10/08 01:53:52;;;;;;;14.68;5.18;;;358.80;2278.40;;;;;;5032172;28;20030;-75
2021/10/08 01:56:18;;;;;;;15.10;4.40;;;358.80;2304.00;;;;;;5032253;28;20061;-75
2021/10/08 01:58:44;;;;;;;14.18;5.05;;;358.90;2304.00;;;;;;5012412;28;20022;-75
2021/10/08 02:01:10;;;;;;;14.30;5.18;;;358.80;2278.40;;;;;;5012392;28;20042;-75
2021/10/08 02:03:35;;;;;;;16.85;6.82;;;358.90;2278.40;;;;;;5005104;28;20066;-76
2021/10/08 02:06:01;;;;;;;8.02;4.60;;;358.80;2278.40;;;;;;4992797;28;20384;-75
2021/10/08 02:08:27;;;;;;;9.88;4.90;;;358.80;2278.40;;;;;;4975098;28;20117;-77
2021/10/08 02:10:53;;;;;;;10.60;5.55;;;358.90;2278.40;;;;;;4992706;28;20520;-76
2021/10/08 02:13:19;;;;;;;14.88;5.50;;;358.90;2278.40;;;;;;4992622;28;20026;-76
2021/10/08 02:15:46;;;;;;;14.23;5.35;;;358.90;2252.80;;;;;;4992747;28;20031;-75
2021/10/08 02:18:12;;;;;;;13.10;4.80;;;358.90;2252.80;;;;;;4992359;28;20034;-76
2021/10/08 02:20:40;;;;;;;13.35;5.30;;;358.90;2278.40;;;;;;4975221;28;20022;-76
2021/10/08 02:23:06;;;;;;;13.90;5.10;;;358.90;2252.80;;;;;;4991487;28;20034;-76
2021/10/08 02:25:32;;;;;;;12.43;4.68;;;358.90;2252.80;;;;;;4992246;28;20018;-77
2021/10/08 02:27:58;;;;;;;15.25;4.60;;;359.00;2252.80;;;;;;4992677;28;20041;-78
2021/10/08 02:30:23;;;;;;;14.07;5.25;;;358.90;2252.80;;;;;;4990986;28;20026;-77
2021/10/08 02:32:49;;;;;;;13.00;5.10;;;359.00;2252.80;;;;;;4975186;28;20030;-77
2021/10/08 02:35:15;;;;;;;13.20;5.25;;;359.00;2252.80;;;;;;4991098;28;20022;-77
2021/10/08 02:37:40;;;;;;;17.90;5.50;;;358.90;2278.40;;;;;;4990509;28;20425;-77
2021/10/08 02:40:08;;;;;;;16.25;5.13;;;358.90;2278.40;;;;;;4974750;28;20472;-77
2021/10/08 02:42:34;;;;;;;13.38;4.82;;;358.90;2304.00;;;;;;4992717;28;20069;-77
2021/10/08 02:44:59;;;;;;;18.58;4.90;;;358.90;2329.60;;;;;;4992244;28;20035;-77
2021/10/08 02:47:25;;;;;;;15.40;5.03;;;358.80;2329.60;;;;;;4992448;28;20045;-76
2021/10/08 02:49:51;;;;;;;15.88;5.38;;;358.60;2329.60;;;;;;4979006;28;20515;-77
2021/10/08 02:52:16;;;;;;;18.65;6.63;;;358.50;2329.60;;;;;;4994877;28;20026;-77
2021/10/08 02:54:42;;;;;;;13.75;6.38;;;358.40;2329.60;;;;;;4996206;28;20537;-77
2021/10/08 02:57:08;;;;;;;12.90;4.88;;;358.40;2329.60;;;;;;5002521;28;20567;-77
2021/10/08 02:59:34;;;;;;;11.48;5.82;;;333.70;2329.60;;;;;;4998057;28;20033;-77
2021/10/08 03:01:59;;;;;;;13.38;5.43;;;333.70;2329.60;;;;;;4997934;28;20403;-76
2021/10/08 03:04:25;;;;;;;14.07;6.15;;;333.50;2329.60;;;;;;5029232;28;20122;-77
2021/10/08 03:06:51;;;;;;;12.95;6.38;;;333.50;2329.60;;;;;;5017616;28;20108;-77
2021/10/08 03:09:17;;;;;;;17.52;5.75;;;333.50;2329.60;;;;;;5017822;28;20420;-77
2021/10/08 03:11:42;;;;;;;14.27;6.88;;;333.40;2329.60;;;;;;5017297;28;20028;-76
2021/10/08 03:14:08;;;;;;;17.60;5.95;;;333.50;2329.60;;;;;;5017392;28;20506;-77
2021/10/08 03:16:34;;;;;;;16.38;6.60;;;333.50;2329.60;;;;;;5034978;28;20029;-77
2021/10/08 03:18:59;;;;;;;14.73;6.38;;;333.40;2329.60;;;;;;5017432;28;20075;-77
2021/10/08 03:21:25;;;;;;;18.15;6.38;;;333.40;2329.60;;;;;;5035163;28;20442;-78
2021/10/08 03:23:51;;;;;;;11.93;6.25;;;333.40;2329.60;;;;;;5034918;28;20471;-76
2021/10/08 03:26:17;;;;;;;14.38;6.43;;;333.40;2329.60;;;;;;5033769;28;20032;-77
2021/10/08 03:28:42;;;;;;;17.23;6.80;;;333.50;2329.60;;;;;;5016393;28;20143;-77
2021/10/08 03:31:08;;;;;;;12.68;5.45;;;333.50;2329.60;;;;;;5017385;28;20025;-77
2021/10/08 03:33:34;;;;;;;13.00;5.93;;;333.60;2329.60;;;;;;5026389;28;20036;-77
2021/10/08 03:36:00;;;;;;;14.70;7.00;;;333.50;2329.60;;;;;;5033668;28;20029;-77
2021/10/08 03:38:28;;;;;;;15.93;7.03;;;333.40;2329.60;;;;;;5016812;28;20128;-77
2021/10/08 03:43:42;;;;;;;15.68;6.95;;;333.50;2329.60;;;;;;4993231;28;20058;-77
2021/10/08 03:46:09;;;;;;;13.32;6.55;;;333.50;2329.60;;;;;;4993072;28;20034;-76
2021/10/08 03:51:24;;;;;;;13.30;6.82;;;333.70;2329.60;;;;;;4993160;28;20065;-75
2021/10/08 03:53:49;;;;;;;18.95;7.10;;;333.70;2329.60;;;;;;4992699;28;20054;-75
2021/10/08 03:56:15;;;;;;;15.25;7.40;;;333.70;2329.60;;;;;;4992746;28;20085;-75
2021/10/08 03:58:41;;;;;;;17.92;7.40;;;333.50;2329.60;;;;;;4973681;28;20477;-75
2021/10/08 04:01:06;;;;;;;14.82;7.05;;;333.50;2329.60;;;;;;4972123;28;20041;-75
2021/10/08 04:03:32;;;;;;;14.85;6.18;;;333.50;2329.60;;;;;;4972925;28;20063;-75
2021/10/08 04:05:58;;;;;;;13.30;5.82;;;333.40;2329.60;;;;;;4973190;28;20524;-78
2021/10/08 04:08:23;;;;;;;20.85;6.78;;;333.40;2329.60;;;;;;4973073;28;20085;-75
2021/10/08 04:10:49;;;;;;;18.45;6.40;;;333.30;2329.60;;;;;;4973421;28;20027;-76
2021/10/08 04:13:15;;;;;;;18.55;6.03;;;333.30;2329.60;;;;;;4972934;28;20026;-76
2021/10/08 04:15:41;;;;;;;19.05;7.40;;;333.30;2329.60;;;;;;4973113;28;20037;-75
2021/10/08 04:18:07;;;;;;;15.95;6.78;;;333.40;2329.60;;;;;;4973189;28;20050;-75
2021/10/08 04:20:32;;;;;;;15.07;6.03;;;333.30;2329.60;;;;;;4990905;28;20606;-76
2021/10/08 04:22:58;;;;;;;15.73;6.07;;;333.20;2329.60;;;;;;5013221;28;20526;-75
2021/10/08 04:25:24;;;;;;;14.40;6.03;;;333.20;2329.60;;;;;;5013894;28;20032;-75
2021/10/08 04:27:49;;;;;;;13.52;6.60;;;333.20;2329.60;;;;;;5013082;28;20113;-75
2021/10/08 04:30:15;;;;;;;15.10;6.68;;;333.10;2329.60;;;;;;5014079;28;20041;-75
2021/10/08 04:32:41;;;;;;;20.40;7.43;;;333.10;2329.60;;;;;;5029053;28;20026;-76
2021/10/08 04:35:07;;;;;;;16.10;6.55;;;333.10;2329.60;;;;;;5013688;28;20112;-75
2021/10/08 04:37:33;;;;;;;16.92;7.05;;;333.20;2329.60;;;;;;5014009;28;20085;-76
2021/10/08 04:39:58;;;;;;;16.80;6.82;;;333.10;2329.60;;;;;;5028945;28;20033;-77
2021/10/08 04:42:24;;;;;;;14.50;7.43;;;333.10;2329.60;;;;;;5012474;28;20034;-76
2021/10/08 04:44:50;;;;;;;13.30;6.45;;;333.20;2329.60;;;;;;5012702;28;20018;-76
2021/10/08 04:47:16;;;;;;;22.73;6.85;;;333.20;2329.60;;;;;;5028573;28;20034;-75
2021/10/08 04:49:42;;;;;;;20.52;7.10;;;333.20;2329.60;;;;;;5013825;28;20025;-75
2021/10/08 04:52:09;;;;;;;18.58;7.35;;;333.20;2329.60;;;;;;5028687;28;20414;-76
2021/10/08 04:54:35;;;;;;;16.15;7.20;;;333.20;2329.60;;;;;;4996178;28;20922;-76
2021/10/08 04:57:00;;;;;;;17.65;7.43;;;333.10;2329.60;;;;;;4999198;28;20037;-75
2021/10/08 04:59:26;;;;;;;23.13;7.15;;;333.00;2329.60;;;;;;5033393;28;20022;-74
2021/10/08 05:01:52;;;;;;;13.02;7.18;;;333.10;2329.60;;;;;;5033203;28;20041;-75
2021/10/08 05:04:17;;;;;;;22.05;7.20;;;333.10;2329.60;;;;;;5041131;28;20156;-75
2021/10/08 05:06:43;;;;;;;12.85;6.68;;;333.30;2329.60;;;;;;5031700;28;20033;-76
2021/10/08 05:09:09;;;;;;;13.43;7.30;;;333.30;2329.60;;;;;;5048541;28;20029;-73
2021/10/08 05:11:35;;;;;;;18.35;7.20;;;333.10;2329.60;;;;;;5032958;28;20056;-75
2021/10/08 05:14:01;;;;;;;13.80;7.20;;;333.10;2329.60;;;;;;5032971;28;20024;-73
2021/10/08 05:16:27;;;;;;;16.20;7.15;;;333.00;2329.60;;;;;;5032723;28;20041;-74
2021/10/08 05:18:52;;;;;;;17.10;7.22;;;333.00;2329.60;;;;;;5031535;28;20518;-74
2021/10/08 05:21:18;;;;;;;21.38;8.35;;;333.00;2329.60;;;;;;5032853;28;20084;-74
2021/10/08 05:23:44;;;;;;;14.27;6.53;;;333.00;2329.60;;;;;;5032834;28;20017;-75
2021/10/08 05:26:10;;;;;;;16.70;7.47;;;333.00;2329.60;;;;;;5032670;28;20030;-76
2021/10/08 05:28:35;;;;;;;13.27;6.43;;;333.00;2329.60;;;;;;5031300;28;20084;-82
2021/10/08 05:31:01;;;;;;;13.15;6.95;;;332.90;2329.60;;;;;;5031603;28;20087;-73
2021/10/08 05:33:27;;;;;;;15.13;6.90;;;332.90;2329.60;;;;;;5025175;28;20112;-75
2021/10/08 05:35:53;;;;;;;21.45;7.00;;;332.90;2329.60;;;;;;5028175;28;20045;-75
2021/10/08 05:38:19;;;;;;;12.65;6.97;;;332.90;2329.60;;;;;;5025807;28;20037;-73
2021/10/08 05:40:47;;;;;;;12.70;6.28;;;332.90;2329.60;;;;;;5028377;28;20028;-72
2021/10/08 05:43:13;;;;;;;14.32;7.05;;;333.10;2329.60;;;;;;5026801;28;20025;-73
2021/10/08 05:45:40;;;;;;;16.63;6.85;;;333.10;2329.60;;;;;;5031125;28;20092;-74
2021/10/08 05:48:05;;;;;;;13.23;6.03;;;333.20;2329.60;;;;;;5025893;28;20033;-74
2021/10/08 05:50:31;;;;;;;16.08;6.82;;;333.30;2329.60;;;;;;5028004;28;20481;-73
2021/10/08 05:52:57;;;;;;;17.45;6.78;;;333.20;2329.60;;;;;;5032221;28;20057;-74
2021/10/08 05:55:23;;;;;;;9.93;5.57;;;333.20;2329.60;;;;;;5032182;28;20048;-73
2021/10/08 05:57:49;;;;;;;11.85;5.45;;;333.20;2329.60;;;;;;5029988;28;20036;-72
2021/10/08 06:00:15;;;;;;;14.93;5.93;;;333.20;2329.60;;;;;;5031921;28;20028;-73
2021/10/08 06:02:41;;;;;;;13.30;6.45;;;333.30;2329.60;;;;;;5031996;28;20025;-73
2021/10/08 06:05:08;;;;;;;18.50;6.70;;;333.30;2329.60;;;;;;5030306;28;20147;-72
2021/10/08 06:07:33;;;;;;;11.38;6.45;;;333.30;2329.60;;;;;;5028656;28;20034;-74
2021/10/08 06:09:59;;;;;;;16.50;6.60;;;333.30;2329.60;;;;;;5018228;28;20034;-73
2021/10/08 06:12:25;;;;;;;13.02;6.05;;;333.30;2329.60;;;;;;5030927;28;20483;-73
2021/10/08 06:14:51;;;;;;;15.20;6.40;;;333.30;2329.60;;;;;;5032003;28;20076;-77
2021/10/08 06:17:16;;;;;;;11.27;6.95;;;333.30;2329.60;;;;;;5031612;28;20041;-74
2021/10/08 06:19:42;;;;;;;17.88;6.47;;;333.30;2329.60;;;;;;5031232;28;20032;-75
2021/10/08 06:22:08;;;;;;;16.63;7.70;;;333.40;2329.60;;;;;;5013730;28;20087;-71
2021/10/08 06:24:34;;;;;;;16.70;5.82;;;333.40;2329.60;;;;;;5030903;28;20464;-73
2021/10/08 06:27:00;;;;;;;10.48;6.28;;;333.30;2329.60;;;;;;5031431;28;20022;-76
2021/10/08 06:29:26;;;;;;;14.15;5.88;;;333.40;2329.60;;;;;;5029480;28;20029;-75
2021/10/08 06:31:51;;;;;;;13.05;5.97;;;333.40;2329.60;;;;;;5029369;28;20041;-76
2021/10/08 06:34:17;;;;;;;15.48;6.50;;;333.50;2329.60;;;;;;5030477;28;20083;-77
2021/10/08 06:36:43;;;;;;;15.68;5.75;;;333.50;2329.60;;;;;;5030570;28;20045;-78
2021/10/08 06:39:10;;;;;;;12.43;5.50;;;333.50;2329.60;;;;;;5030377;28;20029;-77
2021/10/08 06:41:36;;;;;;;17.90;5.18;;;333.60;2329.60;;;;;;5030395;28;20029;-76
2021/10/08 06:44:02;;;;;;;9.60;4.32;;;333.60;2329.60;;;;;;5031718;28;20028;-76
2021/10/08 06:46:28;;;;;;;11.13;4.13;;;333.70;2329.60;;;;;;5031321;28;20112;-77
2021/10/08 06:48:54;;;;;;;8.80;4.32;;;333.70;2329.60;;;;;;5030282;28;20559;-77
2021/10/08 06:51:21;;;;;;;12.95;3.90;;;333.70;2329.60;;;;;;5031927;28;20032;-77
2021/10/08 06:53:46;;;;;;;6.18;3.47;;;333.70;2329.60;;;;;;5031509;28;20459;-77
2021/10/08 06:56:12;;;;;;;8.02;3.63;;;358.40;2329.60;;;;;;5029925;28;20041;-78
2021/10/08 06:58:38;;;;;;;6.90;3.70;;;358.50;2329.60;;;;;;5011170;28;20053;-78
2021/10/08 07:01:04;;;;;;;5.70;3.17;;;358.50;2329.60;;;;;;5011855;28;20060;-77
2021/10/08 07:03:29;;;;;;;6.13;3.00;;;358.50;2329.60;;;;;;4994528;28;20042;-79
2021/10/08 07:05:55;;;;;;;8.88;3.53;;;358.50;2329.60;;;;;;5011972;28;20018;-76
2021/10/08 07:08:21;;;;;;;9.27;3.10;;;358.50;2329.60;;;;;;5011792;28;20490;-76
2021/10/08 07:10:47;;;;;;;8.25;4.07;;;358.60;2329.60;;;;;;4993553;28;20032;-75
2021/10/08 07:13:13;;;;;;;5.32;2.58;;;358.70;2329.60;;;;;;5016593;28;20387;-76
2021/10/08 07:15:38;;;;;;;6.10;2.70;;;358.80;2329.60;;;;;;5031125;28;20482;-75
2021/10/08 07:18:07;;;;;;;6.40;3.05;;;358.80;2329.60;;;;;;5029257;28;20042;-76
2021/10/08 07:20:32;;;;;;;6.70;3.25;;;359.00;2329.60;;;;;;5031191;28;20056;-75
2021/10/08 07:22:59;;;;;;;9.07;3.40;;;359.00;2329.60;;;;;;5030152;28;20049;-77
2021/10/08 07:25:27;;;;;;;5.35;2.53;;;359.10;2329.60;;;;;;5030012;28;20026;-77
2021/10/08 07:27:54;;;;;;;4.82;2.40;;;359.10;2329.60;;;;;;5031014;28;20124;-77
2021/10/08 07:30:20;;;;;;;9.35;2.95;;;359.20;2329.60;;;;;;5030355;28;20021;-78
2021/10/08 07:32:47;;;;;;;7.40;2.90;;;359.10;2329.60;;;;;;5029006;28;20132;-76
2021/10/08 07:35:14;;;;;;;6.05;2.85;;;359.30;2329.60;;;;;;5030373;28;20075;-74
2021/10/08 07:37:40;;;;;;;11.98;4.45;;;359.20;2329.60;;;;;;5031911;28;20038;-74
2021/10/08 07:40:08;;;;;;;7.22;2.13;;;359.20;2329.60;;;;;;5031790;28;20057;-74
2021/10/08 07:42:35;;;;;;;8.32;2.85;;;359.30;2329.60;;;;;;5032535;28;20501;-73
2021/10/08 07:45:02;;;;;;;7.75;2.53;;;359.30;2329.60;;;;;;5034634;28;20025;-74
2021/10/08 07:47:28;;;;;;;7.93;2.50;;;359.30;2329.60;;;;;;5032635;28;20451;-75
2021/10/08 07:49:54;;;;;;;10.68;2.40;;;359.30;2329.60;;;;;;5033335;28;20029;-74
2021/10/08 07:52:20;;;;;;;8.23;3.28;;;384.10;2329.60;;;;;;5033212;28;20776;-74
2021/10/08 07:54:45;;;;;;;6.03;3.00;;;384.10;2329.60;;;;;;5033142;28;20030;-75
2021/10/08 07:57:11;;;;;;;5.93;2.55;;;384.10;2329.60;;;;;;5027041;28;20030;-74
2021/10/08 07:59:37;;;;;;;5.90;2.42;;;384.10;2329.60;;;;;;4996904;28;20104;-81
2021/10/08 08:02:03;;;;;;;11.93;2.75;;;384.20;2329.60;;;;;;4997146;28;20029;-75
2021/10/08 08:04:28;;;;;;;6.05;2.17;;;384.30;2329.60;;;;;;5029308;28;20492;-75
2021/10/08 08:06:54;;;;;;;7.53;2.50;;;384.20;2329.60;;;;;;5014571;28;20030;-76
2021/10/08 08:09:20;;;;;;;8.55;2.33;;;384.20;2329.60;;;;;;5012899;28;20068;-74
2021/10/08 08:11:46;;;;;;;5.95;2.10;;;384.20;2329.60;;;;;;5023944;28;20471;-75
2021/10/08 08:14:12;;;;;;;3.00;1.98;;;384.30;2329.60;;;;;;5033792;28;20475;-74
2021/10/08 08:16:38;;;;;;;5.43;2.00;;;384.40;2329.60;;;;;;5033802;28;20033;-75
2021/10/08 08:19:04;;;;;;;7.68;2.28;;;384.60;2329.60;;;;;;5032764;28;20040;-74
2021/10/08 08:21:29;;;;;;;4.03;2.15;;;384.60;2329.60;;;;;;5032680;28;20079;-74
2021/10/08 08:23:55;;;;;;;4.43;2.08;;;384.70;2329.60;;;;;;5032650;28;20104;-74
2021/10/08 08:26:21;;;;;;;4.25;2.13;;;384.70;2329.60;;;;;;5033627;28;20450;-75
2021/10/08 08:28:47;;;;;;;13.07;3.38;;;384.80;2329.60;;;;;;5033703;28;20509;-74
2021/10/08 08:31:13;;;;;;;5.93;2.15;;;384.90;2329.60;;;;;;5033706;28;20029;-73
2021/10/08 08:33:39;;;;;;;4.10;2.40;;;384.90;2329.60;;;;;;5033255;28;20033;-74
2021/10/08 08:36:05;;;;;;;8.48;2.53;;;410.00;2355.20;;;;;;5033051;28;20502;-74
2021/10/08 08:38:31;;;;;;;8.73;3.30;;;409.70;2355.20;;;;;;5031964;28;20021;-74
2021/10/08 08:41:00;;;;;;;7.13;2.30;;;409.70;2355.20;;;;;;5033059;28;20434;-75
2021/10/08 08:43:28;;;;;;;4.32;1.70;;;409.70;2329.60;;;;;;5031875;28;20025;-74
2021/10/08 08:45:55;;;;;;;11.00;2.35;;;409.60;2304.00;;;;;;5033256;28;20018;-74
2021/10/08 08:48:21;;;;;;;9.75;2.08;;;384.90;2278.40;;;;;;5030885;28;20028;-73
2021/10/08 08:50:48;;;;;;;6.65;2.33;;;384.90;2278.40;;;;;;5030923;28;20100;-74
2021/10/08 08:53:17;;;;;;;3.55;1.90;;;384.80;2278.40;;;;;;5026866;28;20068;-75
2021/10/08 08:55:43;;;;;;;10.20;3.03;;;384.90;2252.80;;;;;;5028818;28;20029;-74
2021/10/08 08:58:09;;;;;;;8.13;2.33;;;384.90;2278.40;;;;;;5028760;28;20060;-76
2021/10/08 09:00:35;;;;;;;4.95;2.72;;;384.90;2252.80;;;;;;5033207;28;20056;-76
2021/10/08 09:03:03;;;;;;;4.85;2.63;;;409.60;2304.00;;;;;;5032944;28;20069;-77
2021/10/08 09:05:35;;;;;;;5.15;2.20;;;409.70;2278.40;;;;;;5033128;28;20486;-76
2021/10/08 09:08:09;;;;;;;8.18;2.42;;;409.70;2304.00;;;;;;5033281;28;20036;-78
2021/10/08 09:10:37;;;;;;;3.60;2.05;;;409.70;2252.80;;;;;;5032927;28;20048;-74
2021/10/08 09:13:04;;;;;;;5.90;2.17;;;409.60;2252.80;;;;;;5031795;28;20053;-73
2021/10/08 09:15:53;;;;;;;9.10;2.45;;;384.90;2227.20;;;;;;5032959;28;20467;-73
2021/10/08 09:18:21;;;;;;;7.88;2.20;;;384.90;2252.80;;;;;;5032614;28;20128;-74
2021/10/08 09:21:21;;;;;;;4.82;1.65;;;384.70;2227.20;;;;;;5031712;28;20022;-74
2021/10/08 09:23:49;;;;;;;6.28;2.35;;;384.90;2227.20;;;;;;4952698;28;20031;-73
2021/10/08 09:26:20;;;;;;;4.72;2.13;;;384.90;2227.20;;;;;;4952498;29;20413;-74
2021/10/08 09:28:58;;;;;;;4.28;2.33;;;384.90;2227.20;;;;;;4952566;29;20027;-73
2021/10/08 09:31:41;;;;;;;4.13;1.90;;;409.60;2252.80;;;;;;4952269;29;20114;-75
2021/10/08 09:34:21;;;;;;;5.72;2.30;;;409.60;2278.40;;;;;;4951921;29;20048;-76
2021/10/08 09:36:52;;;;;;;3.67;2.33;;;409.70;2227.20;;;;;;4949233;29;20053;-73
2021/10/08 09:39:21;;;;;;;3.70;2.17;;;409.70;2252.80;;;;;;4951390;29;20031;-75
2021/10/08 09:41:58;;;;;;;5.88;2.40;;;409.80;2252.80;;;;;;4951351;28;20075;-77
2021/10/08 09:44:25;;;;;;;5.70;2.35;;;409.60;2227.20;;;;;;4949166;28;20031;-72
2021/10/08 09:46:51;;;;;;;9.93;3.20;;;409.80;2227.20;;;;;;4951143;29;20035;-72
2021/10/08 09:49:24;;;;;;;6.53;2.63;;;409.90;2227.20;;;;;;4951511;28;20031;-73
2021/10/08 09:51:50;;;;;;;6.90;3.10;;;409.90;2227.20;;;;;;4949942;28;20039;-75
2021/10/08 09:54:16;;;;;;;8.05;3.15;;;409.90;2201.60;;;;;;4951142;29;20361;-76
2021/10/08 09:56:42;;;;;;;11.57;3.38;;;409.90;2201.60;;;;;;4951037;29;20042;-74
2021/10/08 09:59:14;;;;;;;9.15;2.72;;;409.90;2201.60;;;;;;4984126;28;20032;-76
2021/10/08 10:01:42;;;;;;;10.48;3.42;;;409.90;2176.00;;;;;;5022711;28;20038;-77
2021/10/08 10:04:09;;;;;;;10.68;3.08;;;409.70;2201.60;;;;;;5030940;28;20056;-76
2021/10/08 10:06:39;;;;;;;6.28;2.90;;;409.60;2201.60;;;;;;5031869;28;20035;-76
2021/10/08 10:09:07;;;;;;;7.07;3.45;;;384.90;2176.00;;;;;;5027072;28;20021;-74
2021/10/08 10:11:33;;;;;;;7.70;3.40;;;384.90;2201.60;;;;;;5027727;28;20026;-74
2021/10/08 10:14:00;;;;;;;10.75;2.67;;;384.90;2201.60;;;;;;5031512;28;20029;-73
2021/10/08 10:16:28;;;;;;;7.22;2.80;;;384.90;2201.60;;;;;;5030859;28;20034;-75
2021/10/08 10:18:56;;;;;;;12.77;3.92;;;384.90;2227.20;;;;;;5049779;28;20025;-71
2021/10/08 10:21:32;;;;;;;14.65;3.30;;;384.80;2227.20;;;;;;5039738;28;20018;-74
2021/10/08 10:24:00;;;;;;;9.18;3.15;;;384.80;2227.20;;;;;;5042509;28;20487;-76
2021/10/08 10:26:30;;;;;;;11.30;4.20;;;384.70;2227.20;;;;;;5038495;28;20044;-78
2021/10/08 10:28:59;;;;;;;10.60;3.25;;;384.70;2227.20;;;;;;5040203;28;20052;-74
2021/10/08 10:31:25;;;;;;;15.27;5.57;;;384.70;2252.80;;;;;;5041342;28;20028;-73
2021/10/08 10:33:56;;;;;;;9.40;3.65;;;384.60;2227.20;;;;;;5038641;28;20021;-75
2021/10/08 10:36:27;;;;;;;7.65;3.63;;;384.60;2227.20;;;;;;5035691;28;20116;-74
2021/10/08 10:39:12;;;;;;;8.07;3.33;;;384.60;2252.80;;;;;;5033612;28;20075;-75
2021/10/08 10:41:39;;;;;;;13.27;4.23;;;384.60;2252.80;;;;;;5030428;28;20034;-73
2021/10/08 10:44:20;;;;;;;14.05;3.53;;;384.60;2252.80;;;;;;5038423;28;20258;-74
2021/10/08 10:46:52;;;;;;;9.38;4.10;;;384.40;2252.80;;;;;;5055891;28;20048;-73
2021/10/08 10:52:00;;;;;;;16.30;4.35;;;384.40;2278.40;;;;;;5039575;28;20057;-74
2021/10/08 10:54:38;;;;;;;12.75;3.58;;;384.40;2252.80;;;;;;5039514;28;20026;-74
2021/10/08 10:57:05;;;;;;;5.95;3.65;;;384.10;2278.40;;;;;;5037674;28;20080;-75
2021/10/08 10:59:33;;;;;;;7.72;4.13;;;384.00;2278.40;;;;;;5036555;28;20014;-73
2021/10/08 11:04:39;;;;;;;11.27;3.95;;;359.30;2304.00;;;;;;5031154;28;20136;-73
2021/10/08 11:07:09;;;;;;;7.15;3.35;;;359.30;2304.00;;;;;;5031493;28;20026;-73
2021/10/08 11:09:36;;;;;;;16.25;4.22;;;359.30;2304.00;;;;;;5033324;28;20474;-73
2021/10/08 11:12:30;;;;;;;13.38;4.05;;;359.30;2329.60;;;;;;5035824;28;20487;-79
2021/10/08 11:15:14;;;;;;;9.48;4.07;;;359.20;2329.60;;;;;;5036574;28;20083;-73
2021/10/08 11:17:59;;;;;;;9.77;4.25;;;359.10;2329.60;;;;;;5039795;28;20033;-75
2021/10/08 11:20:31;;;;;;;7.47;3.83;;;359.10;2329.60;;;;;;5032496;28;20609;-73
2021/10/08 11:23:00;;;;;;;11.15;3.63;;;359.10;2329.60;;;;;;5035477;28;20111;-75
2021/10/08 11:25:28;;;;;;;13.18;4.63;;;359.00;2329.60;;;;;;5036060;28;20013;-73
2021/10/08 11:27:54;;;;;;;13.15;5.50;;;359.00;2329.60;;;;;;5043219;28;20116;-81
2021/10/08 11:30:22;;;;;;;13.10;5.70;;;359.00;2329.60;;;;;;5039608;28;20036;-72
2021/10/08 11:32:52;;;;;;;10.65;4.25;;;359.00;2329.60;;;;;;5032814;28;20032;-73
2021/10/08 11:35:27;;;;;;;22.27;5.65;;;359.00;2329.60;;;;;;5029096;28;20045;-74
2021/10/08 11:37:53;;;;;;;13.77;5.10;;;358.90;2329.60;;;;;;5034493;28;20030;-75
2021/10/08 11:40:44;;;;;;;11.02;4.43;;;359.00;2329.60;;;;;;5035221;28;20032;-73
2021/10/08 11:43:31;;;;;;;9.32;3.97;;;358.90;2329.60;;;;;;5053112;28;20142;-74
2021/10/08 11:46:23;;;;;;;9.82;4.63;;;358.90;2329.60;;;;;;5047919;28;20025;-74
2021/10/08 11:48:57;;;;;;;18.13;4.90;;;358.80;2329.60;;;;;;5033413;28;20049;-76
2021/10/08 11:51:26;;;;;;;11.95;4.60;;;358.80;2329.60;;;;;;5034105;28;20025;-73
2021/10/08 11:53:57;;;;;;;10.45;4.75;;;358.80;2329.60;;;;;;5033990;28;20066;-74
2021/10/08 11:56:26;;;;;;;12.63;4.47;;;358.90;2329.60;;;;;;5034133;28;20074;-73
2021/10/08 11:58:59;;;;;;;15.85;5.25;;;358.80;2329.60;;;;;;5031617;28;20022;-73
2021/10/08 12:01:27;;;;;;;20.17;6.90;;;358.90;2329.60;;;;;;5033909;28;20079;-72
2021/10/08 12:03:54;;;;;;;16.48;7.10;;;358.80;2329.60;;;;;;5032165;28;20049;-73
2021/10/08 12:06:32;;;;;;;16.73;6.22;;;358.80;2329.60;;;;;;5034120;28;20471;-73
2021/10/08 12:09:03;;;;;;;15.23;6.22;;;358.80;2329.60;;;;;;5032154;28;20017;-73
2021/10/08 12:11:29;;;;;;;13.90;5.32;;;358.90;2329.60;;;;;;5033876;28;20025;-79
2021/10/08 12:14:04;;;;;;;12.48;5.10;;;358.90;2329.60;;;;;;5047788;28;20025;-73
2021/10/08 12:16:40;;;;;;;14.98;6.22;;;359.00;2329.60;;;;;;5030893;28;20021;-73
2021/10/08 12:19:07;;;;;;;13.68;4.93;;;358.90;2329.60;;;;;;5033505;28;20167;-71
2021/10/08 12:21:43;;;;;;;15.68;5.88;;;359.00;2329.60;;;;;;5030276;28;20040;-73
2021/10/08 12:24:12;;;;;;;20.10;6.13;;;359.00;2329.60;;;;;;5032415;28;20021;-73